Pagina principale
METAR-TAF:

METAR-TAF

Aeroporti :

Bermuda, Bermuda

Aeroporto Internazionale L. F. Wade

latitudine: 32-22N, longitudine: 064-41W, altezza: 6 m

Osservazione

Il bollettino è stato emesso 1 ora e 4 minuti fa, alle 01:55 UTC
Vento 15 kt da est
Temperature 19°C
Umidità 64%
Pressione 1026 hPa
Visibilità 10 km o più
Nubi sparse ad un'altezza di 3500 ft
Nuvoloso ad un'altezza di 5000 ft
Nuvoloso ad un'altezza di 25000 ft

METAR: TXKF 250155Z 10015KT 9999 SCT035 BKN050 BKN250 19/12 Q1026

Ora: 23:59 (02:59 UTC)

Previsione

Il bollettino è stato emesso 3 ore e 24 minuti fa, alle 23:35 UTC
Previsione valida dal 25 alle 00 UTC al 25 alle 24 UTC
Vento 18 kt da est
Visibilità 10 km o più
Nubi sparse ad un'altezza di 4000 ft
Nuvoloso ad un'altezza di 5500 ft
Evoluzione graduale
dal 25 alle 15 UTC al 25 alle 18 UTC
Vento 20 kt da sud-est

TAF: TXKF 242335Z 2500/2524 09018KT 9999 SCT040 BKN055 BECMG 2515/2518 14020KT

Osservazioni e previsioni meteorologiche di più di 4000 aeroporti (messaggi METAR e TAF).

Le stazioni disponibili sono rappresentate dai dischi gialli e rossi sulla carta.

Puntare il mouse per vedere il nome della stazione.

Clicca sopra per visualizzare le osservazioni e previsioni meteorologiche.

Per cambiare la mappa : fare clic sui pulsanti verdi con una croce nera per ingrandire, il pulsante verde con un trattino per diminuire, o sulla freccia verde per le mappe adiacenti.


METAR-TAF: